sensor_id;sensor_type;location;lat;lon;timestamp;temperature;humidity
13174;DHT22;6652;48.802;9.190;2024-02-21T00:01:51;7.50;99.90
13174;DHT22;6652;48.802;9.190;2024-02-21T00:04:18;7.50;99.90
13174;DHT22;6652;48.802;9.190;2024-02-21T00:06:45;7.50;99.90
13174;DHT22;6652;48.802;9.190;2024-02-21T00:09:12;7.50;99.90
13174;DHT22;6652;48.802;9.190;2024-02-21T00:11:38;7.50;99.90
13174;DHT22;6652;48.802;9.190;2024-02-21T00:14:07;7.50;99.90
13174;DHT22;6652;48.802;9.190;2024-02-21T00:16:34;7.50;99.90
13174;DHT22;6652;48.802;9.190;2024-02-21T00:19:00;7.70;99.90
13174;DHT22;6652;48.802;9.190;2024-02-21T00:21:27;7.50;99.90
13174;DHT22;6652;48.802;9.190;2024-02-21T00:23:54;7.50;99.90
13174;DHT22;6652;48.802;9.190;2024-02-21T00:26:21;7.60;99.90
13174;DHT22;6652;48.802;9.190;2024-02-21T00:28:48;7.60;99.90
13174;DHT22;6652;48.802;9.190;2024-02-21T00:31:16;7.70;99.90
13174;DHT22;6652;48.802;9.190;2024-02-21T00:33:43;7.60;99.90
13174;DHT22;6652;48.802;9.190;2024-02-21T00:36:10;7.70;99.90
13174;DHT22;6652;48.802;9.190;2024-02-21T00:38:37;7.60;99.90
13174;DHT22;6652;48.802;9.190;2024-02-21T00:41:03;7.60;99.90
13174;DHT22;6652;48.802;9.190;2024-02-21T00:43:30;7.60;99.90
13174;DHT22;6652;48.802;9.190;2024-02-21T00:45:57;8.20;99.90
13174;DHT22;6652;48.802;9.190;2024-02-21T00:48:25;7.90;99.90
13174;DHT22;6652;48.802;9.190;2024-02-21T00:50:52;8.00;99.90
13174;DHT22;6652;48.802;9.190;2024-02-21T00:53:19;7.70;99.90
13174;DHT22;6652;48.802;9.190;2024-02-21T00:55:46;7.70;99.90
13174;DHT22;6652;48.802;9.190;2024-02-21T00:58:13;7.80;99.90
13174;DHT22;6652;48.802;9.190;2024-02-21T01:00:40;7.70;99.90
13174;DHT22;6652;48.802;9.190;2024-02-21T01:03:07;7.70;99.90
13174;DHT22;6652;48.802;9.190;2024-02-21T01:05:35;7.70;99.90
13174;DHT22;6652;48.802;9.190;2024-02-21T01:08:03;7.70;99.90
13174;DHT22;6652;48.802;9.190;2024-02-21T01:10:29;7.70;99.90
13174;DHT22;6652;48.802;9.190;2024-02-21T01:12:56;9.10;99.90
13174;DHT22;6652;48.802;9.190;2024-02-21T01:15:23;7.60;99.90
13174;DHT22;6652;48.802;9.190;2024-02-21T01:17:50;7.60;99.90
13174;DHT22;6652;48.802;9.190;2024-02-21T01:20:20;7.60;99.90
13174;DHT22;6652;48.802;9.190;2024-02-21T01:22:48;7.60;99.90
13174;DHT22;6652;48.802;9.190;2024-02-21T01:25:15;7.90;99.90
13174;DHT22;6652;48.802;9.190;2024-02-21T01:27:42;7.60;99.90
13174;DHT22;6652;48.802;9.190;2024-02-21T01:30:10;7.60;99.90
13174;DHT22;6652;48.802;9.190;2024-02-21T01:32:37;7.60;99.90
13174;DHT22;6652;48.802;9.190;2024-02-21T01:35:04;7.60;99.90
13174;DHT22;6652;48.802;9.190;2024-02-21T01:37:31;7.60;99.90
13174;DHT22;6652;48.802;9.190;2024-02-21T01:40:00;7.60;99.90
13174;DHT22;6652;48.802;9.190;2024-02-21T01:42:28;7.60;99.90
13174;DHT22;6652;48.802;9.190;2024-02-21T01:44:55;7.60;99.90
13174;DHT22;6652;48.802;9.190;2024-02-21T01:47:22;7.50;99.90
13174;DHT22;6652;48.802;9.190;2024-02-21T01:49:49;7.60;99.90
13174;DHT22;6652;48.802;9.190;2024-02-21T01:52:17;8.70;99.90
13174;DHT22;6652;48.802;9.190;2024-02-21T01:54:44;7.50;99.90
13174;DHT22;6652;48.802;9.190;2024-02-21T01:57:14;7.70;99.90
13174;DHT22;6652;48.802;9.190;2024-02-21T01:59:42;7.50;99.90
13174;DHT22;6652;48.802;9.190;2024-02-21T02:02:09;7.80;99.90
13174;DHT22;6652;48.802;9.190;2024-02-21T02:04:37;7.40;99.90
13174;DHT22;6652;48.802;9.190;2024-02-21T02:07:07;7.40;99.90
13174;DHT22;6652;48.802;9.190;2024-02-21T02:09:34;7.40;99.90
13174;DHT22;6652;48.802;9.190;2024-02-21T02:12:02;7.40;99.90
13174;DHT22;6652;48.802;9.190;2024-02-21T02:14:30;7.40;99.90
13174;DHT22;6652;48.802;9.190;2024-02-21T02:16:57;7.80;99.90
13174;DHT22;6652;48.802;9.190;2024-02-21T02:19:24;7.30;99.90
13174;DHT22;6652;48.802;9.190;2024-02-21T02:21:54;7.40;99.90
13174;DHT22;6652;48.802;9.190;2024-02-21T02:24:24;7.70;99.90
13174;DHT22;6652;48.802;9.190;2024-02-21T02:26:52;7.40;99.90
13174;DHT22;6652;48.802;9.190;2024-02-21T02:29:19;7.40;99.90
13174;DHT22;6652;48.802;9.190;2024-02-21T02:31:46;7.60;99.90
13174;DHT22;6652;48.802;9.190;2024-02-21T02:34:13;7.70;99.90
13174;DHT22;6652;48.802;9.190;2024-02-21T02:36:39;7.50;99.90
13174;DHT22;6652;48.802;9.190;2024-02-21T02:39:06;7.50;99.90
13174;DHT22;6652;48.802;9.190;2024-02-21T02:41:36;7.50;99.90
13174;DHT22;6652;48.802;9.190;2024-02-21T02:44:03;7.50;99.90
13174;DHT22;6652;48.802;9.190;2024-02-21T02:46:31;7.50;99.90
13174;DHT22;6652;48.802;9.190;2024-02-21T02:48:58;7.50;99.90
13174;DHT22;6652;48.802;9.190;2024-02-21T02:51:25;7.60;99.90
13174;DHT22;6652;48.802;9.190;2024-02-21T02:53:51;7.60;99.90
13174;DHT22;6652;48.802;9.190;2024-02-21T02:56:18;7.50;99.90
13174;DHT22;6652;48.802;9.190;2024-02-21T02:58:46;7.90;99.90
13174;DHT22;6652;48.802;9.190;2024-02-21T03:01:14;8.00;99.90
13174;DHT22;6652;48.802;9.190;2024-02-21T03:03:41;8.00;99.90
13174;DHT22;6652;48.802;9.190;2024-02-21T03:06:08;7.40;99.90
13174;DHT22;6652;48.802;9.190;2024-02-21T03:08:35;8.90;99.90
13174;DHT22;6652;48.802;9.190;2024-02-21T03:11:02;7.50;99.90
13174;DHT22;6652;48.802;9.190;2024-02-21T03:13:29;7.50;99.90
13174;DHT22;6652;48.802;9.190;2024-02-21T03:15:57;7.50;99.90
13174;DHT22;6652;48.802;9.190;2024-02-21T03:18:24;7.90;99.90
13174;DHT22;6652;48.802;9.190;2024-02-21T03:20:50;7.50;99.90
13174;DHT22;6652;48.802;9.190;2024-02-21T03:23:17;7.50;99.90
13174;DHT22;6652;48.802;9.190;2024-02-21T03:25:44;7.90;99.90
13174;DHT22;6652;48.802;9.190;2024-02-21T03:28:11;7.60;99.90
13174;DHT22;6652;48.802;9.190;2024-02-21T03:30:38;7.50;99.90
13174;DHT22;6652;48.802;9.190;2024-02-21T03:33:06;7.50;99.90
13174;DHT22;6652;48.802;9.190;2024-02-21T03:35:33;7.50;99.90
13174;DHT22;6652;48.802;9.190;2024-02-21T03:38:00;7.40;99.90
13174;DHT22;6652;48.802;9.190;2024-02-21T03:40:27;7.80;99.90
13174;DHT22;6652;48.802;9.190;2024-02-21T03:42:54;7.40;99.90
13174;DHT22;6652;48.802;9.190;2024-02-21T03:45:21;7.30;99.90
13174;DHT22;6652;48.802;9.190;2024-02-21T03:47:48;7.30;99.90
13174;DHT22;6652;48.802;9.190;2024-02-21T03:50:16;7.30;99.90
13174;DHT22;6652;48.802;9.190;2024-02-21T03:52:43;7.30;99.90
13174;DHT22;6652;48.802;9.190;2024-02-21T03:55:09;7.70;99.90
13174;DHT22;6652;48.802;9.190;2024-02-21T03:57:36;7.40;99.90
13174;DHT22;6652;48.802;9.190;2024-02-21T04:00:05;8.30;99.90
13174;DHT22;6652;48.802;9.190;2024-02-21T04:02:36;7.40;99.90
13174;DHT22;6652;48.802;9.190;2024-02-21T04:05:03;7.40;99.90
13174;DHT22;6652;48.802;9.190;2024-02-21T04:07:32;7.40;99.90
13174;DHT22;6652;48.802;9.190;2024-02-21T04:09:58;7.60;99.90
13174;DHT22;6652;48.802;9.190;2024-02-21T04:12:25;7.30;99.90
13174;DHT22;6652;48.802;9.190;2024-02-21T04:14:52;7.40;99.90
13174;DHT22;6652;48.802;9.190;2024-02-21T04:17:19;7.30;99.90
13174;DHT22;6652;48.802;9.190;2024-02-21T04:19:46;7.20;99.90
13174;DHT22;6652;48.802;9.190;2024-02-21T04:22:13;7.20;99.90
13174;DHT22;6652;48.802;9.190;2024-02-21T04:24:41;7.20;99.90
13174;DHT22;6652;48.802;9.190;2024-02-21T04:27:08;7.50;99.90
13174;DHT22;6652;48.802;9.190;2024-02-21T04:29:34;7.10;99.90
13174;DHT22;6652;48.802;9.190;2024-02-21T04:32:02;7.10;99.90
13174;DHT22;6652;48.802;9.190;2024-02-21T04:34:29;7.10;99.90
13174;DHT22;6652;48.802;9.190;2024-02-21T04:36:56;7.00;99.90
13174;DHT22;6652;48.802;9.190;2024-02-21T04:39:23;7.00;99.90
13174;DHT22;6652;48.802;9.190;2024-02-21T04:41:51;6.90;99.90
13174;DHT22;6652;48.802;9.190;2024-02-21T04:44:18;6.90;99.90
13174;DHT22;6652;48.802;9.190;2024-02-21T04:46:47;7.20;99.90
13174;DHT22;6652;48.802;9.190;2024-02-21T04:49:14;6.90;99.90
13174;DHT22;6652;48.802;9.190;2024-02-21T04:51:41;6.90;99.90
13174;DHT22;6652;48.802;9.190;2024-02-21T04:54:08;7.50;99.90
13174;DHT22;6652;48.802;9.190;2024-02-21T04:56:34;6.80;99.90
13174;DHT22;6652;48.802;9.190;2024-02-21T04:59:03;6.80;99.90
13174;DHT22;6652;48.802;9.190;2024-02-21T05:01:30;6.80;99.90
13174;DHT22;6652;48.802;9.190;2024-02-21T05:03:57;6.90;99.90
13174;DHT22;6652;48.802;9.190;2024-02-21T05:06:24;6.70;99.90
13174;DHT22;6652;48.802;9.190;2024-02-21T05:08:51;6.60;99.90
13174;DHT22;6652;48.802;9.190;2024-02-21T05:11:17;6.60;99.90
13174;DHT22;6652;48.802;9.190;2024-02-21T05:13:44;6.60;99.90
13174;DHT22;6652;48.802;9.190;2024-02-21T05:16:12;6.50;99.90
13174;DHT22;6652;48.802;9.190;2024-02-21T05:18:40;6.50;99.90
13174;DHT22;6652;48.802;9.190;2024-02-21T05:21:08;6.50;99.90
13174;DHT22;6652;48.802;9.190;2024-02-21T05:23:35;6.40;99.90
13174;DHT22;6652;48.802;9.190;2024-02-21T05:26:02;6.30;99.90
13174;DHT22;6652;48.802;9.190;2024-02-21T05:28:29;6.30;99.90
13174;DHT22;6652;48.802;9.190;2024-02-21T05:30:55;6.90;99.90
13174;DHT22;6652;48.802;9.190;2024-02-21T05:33:24;6.80;99.90
13174;DHT22;6652;48.802;9.190;2024-02-21T05:35:51;6.60;99.90
13174;DHT22;6652;48.802;9.190;2024-02-21T05:38:17;6.20;99.90
13174;DHT22;6652;48.802;9.190;2024-02-21T05:40:45;6.20;99.90
13174;DHT22;6652;48.802;9.190;2024-02-21T05:43:12;6.20;99.90
13174;DHT22;6652;48.802;9.190;2024-02-21T05:45:39;6.20;99.90
13174;DHT22;6652;48.802;9.190;2024-02-21T05:48:06;6.20;99.90
13174;DHT22;6652;48.802;9.190;2024-02-21T05:50:34;6.20;99.90
13174;DHT22;6652;48.802;9.190;2024-02-21T05:53:02;7.00;99.90
13174;DHT22;6652;48.802;9.190;2024-02-21T05:55:29;6.40;99.90
13174;DHT22;6652;48.802;9.190;2024-02-21T05:57:56;7.00;99.90
13174;DHT22;6652;48.802;9.190;2024-02-21T06:00:23;6.60;99.90
13174;DHT22;6652;48.802;9.190;2024-02-21T06:02:50;6.50;99.90
13174;DHT22;6652;48.802;9.190;2024-02-21T06:05:17;6.60;99.90
13174;DHT22;6652;48.802;9.190;2024-02-21T06:07:45;7.10;99.90
13174;DHT22;6652;48.802;9.190;2024-02-21T06:10:12;7.40;99.90
13174;DHT22;6652;48.802;9.190;2024-02-21T06:12:40;6.70;99.90
13174;DHT22;6652;48.802;9.190;2024-02-21T06:15:08;7.10;99.90
13174;DHT22;6652;48.802;9.190;2024-02-21T06:17:35;6.60;99.90
13174;DHT22;6652;48.802;9.190;2024-02-21T06:20:02;6.60;99.90
13174;DHT22;6652;48.802;9.190;2024-02-21T06:22:30;6.60;99.90
13174;DHT22;6652;48.802;9.190;2024-02-21T06:24:58;7.00;99.90
13174;DHT22;6652;48.802;9.190;2024-02-21T06:27:24;6.60;99.90
13174;DHT22;6652;48.802;9.190;2024-02-21T06:29:51;6.60;99.90
13174;DHT22;6652;48.802;9.190;2024-02-21T06:32:18;6.60;99.90
13174;DHT22;6652;48.802;9.190;2024-02-21T06:34:45;6.50;99.90
13174;DHT22;6652;48.802;9.190;2024-02-21T06:37:12;6.90;99.90
13174;DHT22;6652;48.802;9.190;2024-02-21T06:39:38;6.90;99.90
13174;DHT22;6652;48.802;9.190;2024-02-21T06:42:07;7.40;99.90
13174;DHT22;6652;48.802;9.190;2024-02-21T06:44:34;7.60;99.90
13174;DHT22;6652;48.802;9.190;2024-02-21T06:47:05;8.60;99.90
13174;DHT22;6652;48.802;9.190;2024-02-21T06:49:33;9.00;99.90
13174;DHT22;6652;48.802;9.190;2024-02-21T06:52:00;8.60;99.90
13174;DHT22;6652;48.802;9.190;2024-02-21T06:54:27;8.20;99.90
13174;DHT22;6652;48.802;9.190;2024-02-21T06:56:54;8.30;99.90
13174;DHT22;6652;48.802;9.190;2024-02-21T06:59:22;9.10;99.90
13174;DHT22;6652;48.802;9.190;2024-02-21T07:01:52;10.10;99.90
13174;DHT22;6652;48.802;9.190;2024-02-21T07:04:19;10.90;99.90
13174;DHT22;6652;48.802;9.190;2024-02-21T07:06:46;11.20;99.90
13174;DHT22;6652;48.802;9.190;2024-02-21T07:09:12;11.50;99.90
13174;DHT22;6652;48.802;9.190;2024-02-21T07:11:39;11.50;99.90
13174;DHT22;6652;48.802;9.190;2024-02-21T07:14:06;11.50;99.90
13174;DHT22;6652;48.802;9.190;2024-02-21T07:16:34;11.40;99.90
13174;DHT22;6652;48.802;9.190;2024-02-21T07:19:02;11.40;99.90
13174;DHT22;6652;48.802;9.190;2024-02-21T07:21:29;11.30;99.90
13174;DHT22;6652;48.802;9.190;2024-02-21T07:23:55;11.50;99.90
13174;DHT22;6652;48.802;9.190;2024-02-21T07:26:22;11.60;99.90
13174;DHT22;6652;48.802;9.190;2024-02-21T07:28:49;11.90;99.90
13174;DHT22;6652;48.802;9.190;2024-02-21T07:31:16;12.30;99.90
13174;DHT22;6652;48.802;9.190;2024-02-21T07:33:44;13.10;99.90
13174;DHT22;6652;48.802;9.190;2024-02-21T07:36:11;13.70;99.90
13174;DHT22;6652;48.802;9.190;2024-02-21T07:38:38;14.00;99.90
13174;DHT22;6652;48.802;9.190;2024-02-21T07:41:05;14.10;99.90
13174;DHT22;6652;48.802;9.190;2024-02-21T07:43:32;14.10;99.90
13174;DHT22;6652;48.802;9.190;2024-02-21T07:45:59;14.20;99.90
13174;DHT22;6652;48.802;9.190;2024-02-21T07:48:26;14.20;99.90
13174;DHT22;6652;48.802;9.190;2024-02-21T07:50:54;14.00;99.90
13174;DHT22;6652;48.802;9.190;2024-02-21T07:53:21;13.80;99.90
13174;DHT22;6652;48.802;9.190;2024-02-21T07:55:48;13.60;99.90
13174;DHT22;6652;48.802;9.190;2024-02-21T07:58:15;13.40;99.90
13174;DHT22;6652;48.802;9.190;2024-02-21T08:00:42;13.30;99.90
13174;DHT22;6652;48.802;9.190;2024-02-21T08:03:09;13.40;99.90
13174;DHT22;6652;48.802;9.190;2024-02-21T08:05:36;13.50;99.90
13174;DHT22;6652;48.802;9.190;2024-02-21T08:08:05;13.70;99.90
13174;DHT22;6652;48.802;9.190;2024-02-21T08:10:32;13.70;99.90
13174;DHT22;6652;48.802;9.190;2024-02-21T08:12:59;13.90;99.90
13174;DHT22;6652;48.802;9.190;2024-02-21T08:15:26;14.00;99.90
13174;DHT22;6652;48.802;9.190;2024-02-21T08:17:55;14.40;99.90
13174;DHT22;6652;48.802;9.190;2024-02-21T08:20:25;15.10;99.90
13174;DHT22;6652;48.802;9.190;2024-02-21T08:22:52;14.60;99.90
13174;DHT22;6652;48.802;9.190;2024-02-21T08:25:20;15.10;99.90
13174;DHT22;6652;48.802;9.190;2024-02-21T08:27:47;14.70;99.90
13174;DHT22;6652;48.802;9.190;2024-02-21T08:30:14;15.00;99.90
13174;DHT22;6652;48.802;9.190;2024-02-21T08:32:41;14.50;99.60
13174;DHT22;6652;48.802;9.190;2024-02-21T08:35:08;14.10;99.90
13174;DHT22;6652;48.802;9.190;2024-02-21T08:37:36;14.20;99.90
13174;DHT22;6652;48.802;9.190;2024-02-21T08:40:03;14.00;99.90
13174;DHT22;6652;48.802;9.190;2024-02-21T08:42:35;13.70;99.90
13174;DHT22;6652;48.802;9.190;2024-02-21T08:45:02;13.80;99.90
13174;DHT22;6652;48.802;9.190;2024-02-21T08:47:29;13.80;99.90
13174;DHT22;6652;48.802;9.190;2024-02-21T08:49:56;13.60;99.90
13174;DHT22;6652;48.802;9.190;2024-02-21T08:52:23;13.50;99.90
13174;DHT22;6652;48.802;9.190;2024-02-21T08:54:50;13.60;99.90
13174;DHT22;6652;48.802;9.190;2024-02-21T08:57:19;13.60;99.90
13174;DHT22;6652;48.802;9.190;2024-02-21T08:59:47;13.40;99.90
13174;DHT22;6652;48.802;9.190;2024-02-21T09:02:14;13.30;99.90
13174;DHT22;6652;48.802;9.190;2024-02-21T09:04:42;13.20;99.90
13174;DHT22;6652;48.802;9.190;2024-02-21T09:07:09;13.50;99.90
13174;DHT22;6652;48.802;9.190;2024-02-21T09:09:36;13.10;99.90
13174;DHT22;6652;48.802;9.190;2024-02-21T09:12:06;13.00;99.90
13174;DHT22;6652;48.802;9.190;2024-02-21T09:14:33;13.00;99.90
13174;DHT22;6652;48.802;9.190;2024-02-21T09:17:02;13.50;99.90
13174;DHT22;6652;48.802;9.190;2024-02-21T09:19:29;13.30;99.90
13174;DHT22;6652;48.802;9.190;2024-02-21T09:21:56;13.20;99.90
13174;DHT22;6652;48.802;9.190;2024-02-21T09:24:23;13.30;99.90
13174;DHT22;6652;48.802;9.190;2024-02-21T09:26:50;13.30;99.90
13174;DHT22;6652;48.802;9.190;2024-02-21T09:29:16;13.30;99.90
13174;DHT22;6652;48.802;9.190;2024-02-21T09:31:43;13.40;99.90
13174;DHT22;6652;48.802;9.190;2024-02-21T09:34:12;13.50;99.90
13174;DHT22;6652;48.802;9.190;2024-02-21T09:36:39;13.50;99.90
13174;DHT22;6652;48.802;9.190;2024-02-21T09:39:06;13.80;99.90
13174;DHT22;6652;48.802;9.190;2024-02-21T09:41:36;14.50;99.90
13174;DHT22;6652;48.802;9.190;2024-02-21T09:44:10;14.90;99.90
13174;DHT22;6652;48.802;9.190;2024-02-21T09:46:51;15.70;99.00
13174;DHT22;6652;48.802;9.190;2024-02-21T09:49:30;16.30;97.40
13174;DHT22;6652;48.802;9.190;2024-02-21T09:52:00;16.70;96.10
13174;DHT22;6652;48.802;9.190;2024-02-21T09:54:28;17.00;95.60
13174;DHT22;6652;48.802;9.190;2024-02-21T09:56:55;17.60;95.80
13174;DHT22;6652;48.802;9.190;2024-02-21T09:59:22;18.00;94.90
13174;DHT22;6652;48.802;9.190;2024-02-21T10:01:50;18.30;93.70
13174;DHT22;6652;48.802;9.190;2024-02-21T10:04:17;17.80;91.70
13174;DHT22;6652;48.802;9.190;2024-02-21T10:06:46;17.20;91.70
13174;DHT22;6652;48.802;9.190;2024-02-21T10:09:21;16.80;92.80
13174;DHT22;6652;48.802;9.190;2024-02-21T10:11:48;17.00;92.40
13174;DHT22;6652;48.802;9.190;2024-02-21T10:14:16;17.70;92.10
13174;DHT22;6652;48.802;9.190;2024-02-21T10:16:44;17.70;91.10
13174;DHT22;6652;48.802;9.190;2024-02-21T10:19:18;18.20;90.60
13174;DHT22;6652;48.802;9.190;2024-02-21T10:22:02;17.70;90.00
13174;DHT22;6652;48.802;9.190;2024-02-21T10:24:30;17.90;89.60
13174;DHT22;6652;48.802;9.190;2024-02-21T10:27:05;18.20;89.60
13174;DHT22;6652;48.802;9.190;2024-02-21T10:29:33;18.40;88.80
13174;DHT22;6652;48.802;9.190;2024-02-21T10:32:08;17.90;86.60
13174;DHT22;6652;48.802;9.190;2024-02-21T10:34:35;17.50;87.40
13174;DHT22;6652;48.802;9.190;2024-02-21T10:37:05;17.20;87.20
13174;DHT22;6652;48.802;9.190;2024-02-21T10:39:32;17.20;88.00
13174;DHT22;6652;48.802;9.190;2024-02-21T10:42:00;17.40;87.70
13174;DHT22;6652;48.802;9.190;2024-02-21T10:44:30;17.40;87.50
13174;DHT22;6652;48.802;9.190;2024-02-21T10:46:58;17.30;87.40
13174;DHT22;6652;48.802;9.190;2024-02-21T10:49:26;17.10;86.90
13174;DHT22;6652;48.802;9.190;2024-02-21T10:51:58;16.90;88.20
13174;DHT22;6652;48.802;9.190;2024-02-21T10:54:45;16.30;88.30
13174;DHT22;6652;48.802;9.190;2024-02-21T10:57:16;15.70;90.00
13174;DHT22;6652;48.802;9.190;2024-02-21T10:59:45;15.50;90.30
13174;DHT22;6652;48.802;9.190;2024-02-21T11:02:14;15.50;90.80
13174;DHT22;6652;48.802;9.190;2024-02-21T11:04:42;15.60;91.10
13174;DHT22;6652;48.802;9.190;2024-02-21T11:07:09;15.50;90.80
13174;DHT22;6652;48.802;9.190;2024-02-21T11:09:37;15.30;90.50
13174;DHT22;6652;48.802;9.190;2024-02-21T11:12:07;15.30;90.70
13174;DHT22;6652;48.802;9.190;2024-02-21T11:25:05;15.10;90.70
13174;DHT22;6652;48.802;9.190;2024-02-21T11:27:34;15.10;91.10
13174;DHT22;6652;48.802;9.190;2024-02-21T11:34:03;15.20;90.90
13174;DHT22;6652;48.802;9.190;2024-02-21T11:36:58;15.20;90.30
13174;DHT22;6652;48.802;9.190;2024-02-21T11:39:41;15.40;90.00
13174;DHT22;6652;48.802;9.190;2024-02-21T11:42:24;15.30;88.70
13174;DHT22;6652;48.802;9.190;2024-02-21T11:44:55;15.30;90.30
13174;DHT22;6652;48.802;9.190;2024-02-21T11:47:24;15.70;90.10
13174;DHT22;6652;48.802;9.190;2024-02-21T11:53:39;15.40;89.10
13174;DHT22;6652;48.802;9.190;2024-02-21T11:56:51;15.20;89.10
13174;DHT22;6652;48.802;9.190;2024-02-21T11:59:50;15.10;88.10
13174;DHT22;6652;48.802;9.190;2024-02-21T12:32:48;15.50;82.20
13174;DHT22;6652;48.802;9.190;2024-02-21T12:35:30;15.60;83.10
13174;DHT22;6652;48.802;9.190;2024-02-21T12:37:59;15.60;82.00
13174;DHT22;6652;48.802;9.190;2024-02-21T12:40:27;15.60;81.10
13174;DHT22;6652;48.802;9.190;2024-02-21T12:42:58;15.60;81.40
13174;DHT22;6652;48.802;9.190;2024-02-21T12:45:28;15.60;80.20
13174;DHT22;6652;48.802;9.190;2024-02-21T12:48:07;16.00;81.10
13174;DHT22;6652;48.802;9.190;2024-02-21T12:50:37;15.80;79.80
13174;DHT22;6652;48.802;9.190;2024-02-21T12:53:05;15.70;78.80
13174;DHT22;6652;48.802;9.190;2024-02-21T12:55:32;15.60;79.20
13174;DHT22;6652;48.802;9.190;2024-02-21T12:58:03;15.70;79.90
13174;DHT22;6652;48.802;9.190;2024-02-21T13:00:35;15.40;78.70
13174;DHT22;6652;48.802;9.190;2024-02-21T13:03:12;15.30;80.50
13174;DHT22;6652;48.802;9.190;2024-02-21T13:05:41;15.30;79.50
13174;DHT22;6652;48.802;9.190;2024-02-21T13:08:10;15.30;79.00
13174;DHT22;6652;48.802;9.190;2024-02-21T13:10:39;15.40;79.90
13174;DHT22;6652;48.802;9.190;2024-02-21T13:13:06;15.60;80.00
13174;DHT22;6652;48.802;9.190;2024-02-21T13:15:41;15.60;79.00
13174;DHT22;6652;48.802;9.190;2024-02-21T13:18:13;15.50;77.70
13174;DHT22;6652;48.802;9.190;2024-02-21T13:20:54;15.80;78.50
13174;DHT22;6652;48.802;9.190;2024-02-21T13:23:33;15.50;79.20
13174;DHT22;6652;48.802;9.190;2024-02-21T13:26:14;16.30;79.60
13174;DHT22;6652;48.802;9.190;2024-02-21T13:28:42;15.30;78.60
13174;DHT22;6652;48.802;9.190;2024-02-21T13:31:23;15.30;79.50
13174;DHT22;6652;48.802;9.190;2024-02-21T13:34:10;15.30;79.90
13174;DHT22;6652;48.802;9.190;2024-02-21T13:36:37;15.30;79.50
13174;DHT22;6652;48.802;9.190;2024-02-21T13:39:06;15.30;78.90
13174;DHT22;6652;48.802;9.190;2024-02-21T13:41:47;15.60;79.70
13174;DHT22;6652;48.802;9.190;2024-02-21T13:44:16;15.70;78.50
13174;DHT22;6652;48.802;9.190;2024-02-21T13:46:47;15.30;77.30
13174;DHT22;6652;48.802;9.190;2024-02-21T13:49:19;15.20;77.40
13174;DHT22;6652;48.802;9.190;2024-02-21T13:51:51;15.10;77.70
13174;DHT22;6652;48.802;9.190;2024-02-21T13:54:19;15.30;77.10
13174;DHT22;6652;48.802;9.190;2024-02-21T13:56:48;15.20;76.70
13174;DHT22;6652;48.802;9.190;2024-02-21T13:59:18;14.80;76.80
13174;DHT22;6652;48.802;9.190;2024-02-21T14:01:49;14.70;77.20
13174;DHT22;6652;48.802;9.190;2024-02-21T14:04:19;14.70;77.20
13174;DHT22;6652;48.802;9.190;2024-02-21T14:06:47;14.80;76.90
13174;DHT22;6652;48.802;9.190;2024-02-21T14:09:19;14.70;75.90
13174;DHT22;6652;48.802;9.190;2024-02-21T14:11:46;14.60;76.10
13174;DHT22;6652;48.802;9.190;2024-02-21T14:14:14;14.60;76.50
13174;DHT22;6652;48.802;9.190;2024-02-21T14:16:44;15.80;78.70
13174;DHT22;6652;48.802;9.190;2024-02-21T14:19:15;14.70;77.60
13174;DHT22;6652;48.802;9.190;2024-02-21T14:21:47;14.60;77.20
13174;DHT22;6652;48.802;9.190;2024-02-21T14:24:16;14.70;77.90
13174;DHT22;6652;48.802;9.190;2024-02-21T14:26:43;14.60;78.10
13174;DHT22;6652;48.802;9.190;2024-02-21T14:29:12;14.60;78.00
13174;DHT22;6652;48.802;9.190;2024-02-21T14:31:44;14.70;78.40
13174;DHT22;6652;48.802;9.190;2024-02-21T14:34:15;15.00;79.10
13174;DHT22;6652;48.802;9.190;2024-02-21T14:36:54;14.80;76.70
13174;DHT22;6652;48.802;9.190;2024-02-21T14:39:24;14.90;75.70
13174;DHT22;6652;48.802;9.190;2024-02-21T14:41:54;14.90;76.50
13174;DHT22;6652;48.802;9.190;2024-02-21T14:44:21;14.80;75.60
13174;DHT22;6652;48.802;9.190;2024-02-21T14:46:48;14.40;75.10
13174;DHT22;6652;48.802;9.190;2024-02-21T14:49:15;14.80;75.40
13174;DHT22;6652;48.802;9.190;2024-02-21T14:51:46;14.70;75.50
13174;DHT22;6652;48.802;9.190;2024-02-21T14:54:13;14.70;75.10
13174;DHT22;6652;48.802;9.190;2024-02-21T14:56:42;14.90;75.90
13174;DHT22;6652;48.802;9.190;2024-02-21T14:59:11;14.90;75.60
13174;DHT22;6652;48.802;9.190;2024-02-21T15:01:43;14.70;76.30
13174;DHT22;6652;48.802;9.190;2024-02-21T15:04:15;14.70;74.60
13174;DHT22;6652;48.802;9.190;2024-02-21T15:06:43;14.60;73.20
13174;DHT22;6652;48.802;9.190;2024-02-21T15:09:14;14.60;72.80
13174;DHT22;6652;48.802;9.190;2024-02-21T15:11:42;14.60;73.60
13174;DHT22;6652;48.802;9.190;2024-02-21T15:14:11;14.60;72.10
13174;DHT22;6652;48.802;9.190;2024-02-21T15:16:52;14.50;70.80
13174;DHT22;6652;48.802;9.190;2024-02-21T15:19:20;14.50;72.40
13174;DHT22;6652;48.802;9.190;2024-02-21T15:21:48;14.40;71.40
13174;DHT22;6652;48.802;9.190;2024-02-21T15:24:21;14.40;70.80
13174;DHT22;6652;48.802;9.190;2024-02-21T15:26:55;14.40;70.20
13174;DHT22;6652;48.802;9.190;2024-02-21T15:29:37;14.20;68.10
13174;DHT22;6652;48.802;9.190;2024-02-21T15:32:08;14.20;69.30
13174;DHT22;6652;48.802;9.190;2024-02-21T15:34:38;14.10;69.00
13174;DHT22;6652;48.802;9.190;2024-02-21T15:37:05;14.10;69.90
13174;DHT22;6652;48.802;9.190;2024-02-21T15:39:36;14.10;71.50
13174;DHT22;6652;48.802;9.190;2024-02-21T15:42:07;14.10;73.80
13174;DHT22;6652;48.802;9.190;2024-02-21T15:44:48;13.70;75.30
13174;DHT22;6652;48.802;9.190;2024-02-21T15:47:17;13.90;76.30
13174;DHT22;6652;48.802;9.190;2024-02-21T15:49:59;14.40;77.40
13174;DHT22;6652;48.802;9.190;2024-02-21T15:52:38;13.90;77.10
13174;DHT22;6652;48.802;9.190;2024-02-21T15:55:12;13.80;77.60
13174;DHT22;6652;48.802;9.190;2024-02-21T15:57:47;13.70;78.10
13174;DHT22;6652;48.802;9.190;2024-02-21T16:00:28;13.60;79.90
13174;DHT22;6652;48.802;9.190;2024-02-21T16:02:57;13.60;79.90
13174;DHT22;6652;48.802;9.190;2024-02-21T16:05:26;14.50;81.90
13174;DHT22;6652;48.802;9.190;2024-02-21T16:07:55;13.50;81.70
13174;DHT22;6652;48.802;9.190;2024-02-21T16:10:37;13.50;82.80
13174;DHT22;6652;48.802;9.190;2024-02-21T16:13:06;13.50;83.50
13174;DHT22;6652;48.802;9.190;2024-02-21T16:15:36;13.50;83.60
13174;DHT22;6652;48.802;9.190;2024-02-21T16:18:03;13.50;83.90
13174;DHT22;6652;48.802;9.190;2024-02-21T16:20:32;13.40;84.60
13174;DHT22;6652;48.802;9.190;2024-02-21T16:23:01;13.30;85.20
13174;DHT22;6652;48.802;9.190;2024-02-21T16:25:30;13.30;85.60
13174;DHT22;6652;48.802;9.190;2024-02-21T16:28:15;13.30;86.00
13174;DHT22;6652;48.802;9.190;2024-02-21T16:30:45;13.20;86.50
13174;DHT22;6652;48.802;9.190;2024-02-21T16:33:17;13.80;87.70
13174;DHT22;6652;48.802;9.190;2024-02-21T16:35:45;13.10;87.60
13174;DHT22;6652;48.802;9.190;2024-02-21T16:38:16;13.00;88.20
13174;DHT22;6652;48.802;9.190;2024-02-21T16:40:46;13.80;89.40
13174;DHT22;6652;48.802;9.190;2024-02-21T16:43:22;12.90;89.20
13174;DHT22;6652;48.802;9.190;2024-02-21T16:45:50;13.20;90.10
13174;DHT22;6652;48.802;9.190;2024-02-21T16:48:28;12.80;90.40
13174;DHT22;6652;48.802;9.190;2024-02-21T16:50:57;12.70;90.80
13174;DHT22;6652;48.802;9.190;2024-02-21T16:53:25;12.70;91.30